Weather at Tucson International Airport / Morris Air National Guard Base

Public forecast

Using degrees Fahrenheit for public forecast. Weather courtesy of forecast.io.

Current aviation weather report (METAR) for Tucson International Airport / Morris Air National Guard Base

Retrieved 2021/07/28 15:53 UTC (23 minutes ago):

KTUS 281553Z 15006KT 10SM CLR 27/18 A3011 RMK AO2 SLP153 T02670183

Aviation forecast (TAF) for Tucson International Airport / Morris Air National Guard Base

Retrieved 2021/07/28 12:36 UTC (4 hours ago):

TAF KTUS 281134Z 2812/2912 13005KT P6SM FEW150 FM282100 32012KT P6SM VCSH SCT100 FM290400 14008KT P6SM SCT100